This is the latest recevied weather packets stored in our database for station/object M0OAB-1. If no packets are shown the sender has not sent any weather packets the latest 10 day(s).
| Time | Temp. | Humidity | Pressure | Rain* | Wind** | Luminosity | Snow |
|---|---|---|---|---|---|---|---|
| 1777709285 | 18.33° C | 62% | 1003.8 hPa | 0 mm | - | - | - |
| 1777708444 | 18.33° C | 61% | 1003.9 hPa | 0 mm | - | - | - |
| 1777707844 | 18.33° C | 61% | 1004 hPa | 0 mm | - | - | - |
| 1777707604 | 18.33° C | 61% | 1004 hPa | 0 mm | - | - | - |
| 1777707004 | 18.33° C | 62% | 1003.8 hPa | 0 mm | - | - | - |
| 1777706644 | 18.33° C | 63% | 1003.7 hPa | 0 mm | - | - | - |
| 1777705204 | 15.56° C | 76% | 1004 hPa | 0 mm | - | - | - |
| 1777703764 | 12.78° C | 79% | 1003.9 hPa | 0 mm | - | - | - |
| 1777703524 | 12.78° C | 79% | 1003.9 hPa | 0 mm | - | - | - |
| 1777702204 | 12.22° C | 83% | 1003.8 hPa | 0 mm | - | - | - |
| 1777701484 | 11.67° C | 83% | 1003.6 hPa | 0 mm | - | - | - |
| 1777700884 | 11.67° C | 83% | 1003.8 hPa | 0 mm | - | - | - |
| 1777699924 | 11.11° C | 82% | 1003.8 hPa | 0 mm | - | - | - |
| 1777699804 | 11.11° C | 82% | 1003.8 hPa | 0 mm | - | - | - |
| 1777699324 | 10.56° C | 81% | 1004 hPa | 0 mm | - | - | - |
| 1777699084 | 10.56° C | 81% | 1003.9 hPa | 0 mm | - | - | - |
| 1777698364 | 10.56° C | 80% | 1003.6 hPa | 0 mm | - | - | - |
| 1777698124 | 10.56° C | 79% | 1003.6 hPa | 0 mm | - | - | - |
| 1777697644 | 10° C | 78% | 1003.7 hPa | 0 mm | - | - | - |
| 1777697404 | 10° C | 78% | 1003.8 hPa | 0 mm | - | - | - |
| 1777697164 | 10° C | 78% | 1003.6 hPa | 0 mm | - | - | - |
| 1777696323 | 10° C | 78% | 1003.6 hPa | 0 mm | - | - | - |
| 1777694883 | 10.56° C | 79% | 1003.8 hPa | 0 mm | - | - | - |
| 1777693324 | 10.56° C | 77% | 1003.8 hPa | 0 mm | - | - | - |
| 1777691524 | 10.56° C | 74% | 1004 hPa | 0 mm | - | - | - |
* Rain latest hour (hover to see other rain measurements)
** Current wind speed in m/s (hover to see current wind gust speed)